Wetterdaten: Woche 17.03.25 - 23.03.25 (KW12)
Datum Zeit Temp. I. Temp. A. Feuchte I. Feuchte A. Luftdruck Regen Wind Richtung Sonnenschein Solar Taupunkt Windchill Windböen
17.03.2025 00:00 21,7 °C 3,8 °C 46 % 82 % 1021,6 hPa 0,0 l/m² 4,4 km/h (1 Bft) W 0,00 h 0 W/m² 0,9 °C 3,7 °C 8,3 km/h (2 Bft)
17.03.2025 01:00 21,7 °C 4,7 °C 46 % 81 % 1022,0 hPa 0,0 l/m² 5,5 km/h (2 Bft) W-NW 0,00 h 0 W/m² 1,6 °C 4,2 °C 10,9 km/h (2 Bft)
17.03.2025 02:00 21,7 °C 5,0 °C 46 % 83 % 1022,3 hPa 0,0 l/m² 11,0 km/h (2 Bft) NW 0,00 h 0 W/m² 2,3 °C 1,5 °C 18,6 km/h (3 Bft)
17.03.2025 03:00 21,6 °C 4,8 °C 46 % 84 % 1022,8 hPa 0,0 l/m² 12,1 km/h (2 Bft) N-NW 0,00 h 0 W/m² 2,3 °C 0,7 °C 19,6 km/h (3 Bft)
17.03.2025 04:00 21,6 °C 4,1 °C 46 % 74 % 1023,7 hPa 0,0 l/m² 12,9 km/h (3 Bft) NO 0,00 h 0 W/m² -0,1 °C -0,6 °C 22,5 km/h (4 Bft)
17.03.2025 05:00 21,6 °C 2,8 °C 46 % 63 % 1025,0 hPa 0,0 l/m² 12,3 km/h (2 Bft) N-NO 0,00 h 0 W/m² -3,7 °C -1,8 °C 21,7 km/h (4 Bft)
17.03.2025 06:00 21,6 °C 1,3 °C 46 % 61 % 1026,4 hPa 0,0 l/m² 7,6 km/h (2 Bft) N 0,00 h 15 W/m² -5,3 °C 0,0 °C 15,1 km/h (3 Bft)
17.03.2025 07:00 21,5 °C 1,4 °C 44 % 68 % 1027,5 hPa 0,0 l/m² 7,0 km/h (2 Bft) N-NO 0,87 h 121 W/m² -3,8 °C 0,5 °C 13,8 km/h (3 Bft)
17.03.2025 08:00 21,7 °C 3,2 °C 43 % 69 % 1028,4 hPa 0,0 l/m² 8,8 km/h (2 Bft) N-NO 0,98 h 310 W/m² -2,0 °C 1,1 °C 16,7 km/h (3 Bft)
17.03.2025 09:00 21,9 °C 5,1 °C 43 % 61 % 1029,2 hPa 0,0 l/m² 11,8 km/h (2 Bft) NO 1,00 h 490 W/m² -1,8 °C 1,2 °C 20,4 km/h (4 Bft)
17.03.2025 10:00 22,1 °C 6,3 °C 43 % 53 % 1029,8 hPa 0,0 l/m² 15,0 km/h (3 Bft) NO 1,02 h 508 W/m² -2,5 °C 0,8 °C 24,7 km/h (4 Bft)
17.03.2025 11:00 21,9 °C 5,4 °C 44 % 48 % 1030,1 hPa 0,0 l/m² 11,4 km/h (2 Bft) NO 1,00 h 252 W/m² -4,8 °C 1,8 °C 20,9 km/h (4 Bft)
17.03.2025 12:00 21,9 °C 5,8 °C 44 % 47 % 1030,3 hPa 0,0 l/m² 9,4 km/h (2 Bft) N-NO 0,98 h 353 W/m² -4,5 °C 3,3 °C 17,1 km/h (3 Bft)
17.03.2025 13:00 22,0 °C 7,7 °C 44 % 40 % 1030,0 hPa 0,0 l/m² 9,8 km/h (2 Bft) O-NO 1,02 h 656 W/m² -4,9 °C 5,3 °C 17,3 km/h (3 Bft)
17.03.2025 14:00 22,1 °C 7,9 °C 44 % 39 % 1030,1 hPa 0,0 l/m² 8,2 km/h (2 Bft) NO 1,00 h 549 W/m² -5,3 °C 6,2 °C 15,0 km/h (3 Bft)
17.03.2025 15:00 22,1 °C 7,9 °C 44 % 35 % 1030,2 hPa 0,0 l/m² 8,9 km/h (2 Bft) O-NO 1,00 h 420 W/m² -6,6 °C 5,9 °C 15,0 km/h (3 Bft)
17.03.2025 16:00 22,1 °C 7,5 °C 44 % 34 % 1030,2 hPa 0,0 l/m² 8,1 km/h (2 Bft) NO 1,00 h 252 W/m² -7,3 °C 5,9 °C 14,4 km/h (3 Bft)
17.03.2025 17:00 22,0 °C 6,3 °C 43 % 37 % 1030,4 hPa 0,0 l/m² 6,1 km/h (2 Bft) O-NO 0,60 h 66 W/m² -7,4 °C 5,9 °C 11,6 km/h (2 Bft)
17.03.2025 18:00 21,9 °C 3,8 °C 43 % 43 % 1030,8 hPa 0,0 l/m² 1,8 km/h (1 Bft) NO 0,00 h 9 W/m² -7,5 °C 3,8 °C 3,9 km/h (1 Bft)
17.03.2025 19:00 21,9 °C 1,7 °C 43 % 53 % 1031,3 hPa 0,0 l/m² 0,8 km/h (0 Bft) NO 0,00 h 0 W/m² -6,9 °C 1,7 °C 2,4 km/h (1 Bft)
17.03.2025 20:00 21,8 °C -0,8 °C 43 % 68 % 1031,8 hPa 0,0 l/m² 0,0 km/h (0 Bft) O-NO 0,00 h 0 W/m² -5,9 °C -0,8 °C 0,0 km/h (0 Bft)
17.03.2025 21:00 21,9 °C -2,1 °C 44 % 73 % 1032,1 hPa 0,0 l/m² 0,0 km/h (0 Bft) O-NO 0,00 h 0 W/m² -6,2 °C -2,1 °C 0,0 km/h (0 Bft)
17.03.2025 22:00 22,0 °C -3,2 °C 43 % 76 % 1032,4 hPa 0,0 l/m² 0,0 km/h (0 Bft) O-NO 0,00 h 0 W/m² -6,8 °C -3,2 °C 0,0 km/h (0 Bft)
17.03.2025 23:00 22,0 °C -4,1 °C 43 % 77 % 1032,5 hPa 0,0 l/m² 0,0 km/h (0 Bft) O-NO 0,00 h 0 W/m² -7,5 °C -4,1 °C 0,0 km/h (0 Bft)
18.03.2025 00:00 22,0 °C -4,9 °C 43 % 80 % 1032,6 hPa 0,0 l/m² 0,0 km/h (0 Bft) O-NO 0,00 h 0 W/m² -7,7 °C -4,9 °C 0,0 km/h (0 Bft)
18.03.2025 01:00 22,1 °C -5,4 °C 43 % 82 % 1032,9 hPa 0,0 l/m² 0,0 km/h (0 Bft) O-NO 0,00 h 0 W/m² -7,9 °C -5,4 °C 0,0 km/h (0 Bft)
18.03.2025 02:00 22,1 °C -6,0 °C 43 % 83 % 1033,0 hPa 0,0 l/m² 0,0 km/h (0 Bft) O-NO 0,00 h 0 W/m² -8,3 °C -6,0 °C 0,0 km/h (0 Bft)
18.03.2025 03:00 22,0 °C -6,4 °C 43 % 85 % 1032,7 hPa 0,0 l/m² 0,0 km/h (0 Bft) O-NO 0,00 h 0 W/m² -8,6 °C -6,4 °C 0,0 km/h (0 Bft)
18.03.2025 04:00 22,1 °C -6,7 °C 43 % 85 % 1032,6 hPa 0,0 l/m² 0,0 km/h (0 Bft) O-NO 0,00 h 0 W/m² -8,8 °C -6,7 °C 0,0 km/h (0 Bft)
18.03.2025 05:00 22,1 °C -7,1 °C 43 % 86 % 1032,6 hPa 0,0 l/m² 0,0 km/h (0 Bft) O-NO 0,00 h 0 W/m² -9,0 °C -7,1 °C 0,0 km/h (0 Bft)
18.03.2025 06:00 22,0 °C -7,2 °C 42 % 86 % 1032,8 hPa 0,0 l/m² 0,0 km/h (0 Bft) O-NO 0,00 h 16 W/m² -9,1 °C -7,2 °C 0,0 km/h (0 Bft)
18.03.2025 07:00 21,9 °C -5,4 °C 39 % 86 % 1033,2 hPa 0,0 l/m² 0,0 km/h (0 Bft) O-NO 0,95 h 145 W/m² -7,3 °C -5,4 °C 0,0 km/h (0 Bft)
18.03.2025 08:00 22,1 °C -2,3 °C 40 % 81 % 1033,5 hPa 0,0 l/m² 0,1 km/h (0 Bft) O-NO 1,02 h 311 W/m² -5,1 °C -2,3 °C 0,5 km/h (0 Bft)
18.03.2025 09:00 22,3 °C 2,2 °C 40 % 69 % 1033,7 hPa 0,0 l/m² 1,2 km/h (1 Bft) SW 0,98 h 466 W/m² -2,9 °C 2,2 °C 2,8 km/h (1 Bft)
18.03.2025 10:00 22,5 °C 5,4 °C 40 % 48 % 1033,4 hPa 0,0 l/m² 3,7 km/h (1 Bft) S-SO 1,02 h 587 W/m² -4,7 °C 5,3 °C 6,9 km/h (2 Bft)
18.03.2025 11:00 22,8 °C 6,6 °C 40 % 39 % 1032,9 hPa 0,0 l/m² 4,5 km/h (1 Bft) O-SO 0,98 h 657 W/m² -6,4 °C 6,4 °C 8,1 km/h (2 Bft)
18.03.2025 12:00 23,2 °C 7,6 °C 40 % 37 % 1032,3 hPa 0,0 l/m² 5,8 km/h (2 Bft) S-SO 1,02 h 675 W/m² -6,2 °C 7,0 °C 9,7 km/h (2 Bft)
18.03.2025 13:00 23,2 °C 8,4 °C 40 % 33 % 1031,6 hPa 0,0 l/m² 6,2 km/h (2 Bft) O-SO 1,00 h 641 W/m² -6,8 °C 7,6 °C 10,3 km/h (2 Bft)
18.03.2025 14:00 23,0 °C 8,9 °C 41 % 32 % 1031,1 hPa 0,0 l/m² 5,4 km/h (2 Bft) O 1,00 h 557 W/m² -7,0 °C 8,4 °C 9,3 km/h (2 Bft)
18.03.2025 15:00 22,8 °C 9,0 °C 41 % 33 % 1030,4 hPa 0,0 l/m² 7,3 km/h (2 Bft) O 0,98 h 428 W/m² -6,4 °C 7,9 °C 12,0 km/h (2 Bft)
18.03.2025 16:00 22,7 °C 8,5 °C 41 % 32 % 1029,8 hPa 0,0 l/m² 5,9 km/h (2 Bft) O 1,02 h 260 W/m² -7,1 °C 8,0 °C 8,4 km/h (2 Bft)
18.03.2025 17:00 22,6 °C 7,3 °C 41 % 38 % 1029,5 hPa 0,0 l/m² 6,5 km/h (2 Bft) O 0,62 h 72 W/m² -6,0 °C 6,5 °C 9,5 km/h (2 Bft)
18.03.2025 18:00 22,4 °C 4,8 °C 41 % 42 % 1029,4 hPa 0,0 l/m² 2,4 km/h (1 Bft) O-NO 0,00 h 10 W/m² -7,1 °C 4,8 °C 3,7 km/h (1 Bft)
18.03.2025 19:00 22,3 °C 0,8 °C 41 % 64 % 1029,8 hPa 0,0 l/m² 0,0 km/h (0 Bft) O-NO 0,00 h 0 W/m² -5,3 °C 0,8 °C 0,0 km/h (0 Bft)
18.03.2025 20:00 22,2 °C -1,2 °C 39 % 74 % 1029,7 hPa 0,0 l/m² 0,0 km/h (0 Bft) O-NO 0,00 h 0 W/m² -5,1 °C -1,2 °C 0,0 km/h (0 Bft)
18.03.2025 21:00 22,2 °C -2,1 °C 40 % 77 % 1029,9 hPa 0,0 l/m² 0,0 km/h (0 Bft) O-NO 0,00 h 0 W/m² -5,7 °C -2,1 °C 0,0 km/h (0 Bft)
18.03.2025 22:00 22,2 °C -3,2 °C 40 % 77 % 1029,9 hPa 0,0 l/m² 0,0 km/h (0 Bft) O-NO 0,00 h 0 W/m² -6,6 °C -3,2 °C 0,0 km/h (0 Bft)
18.03.2025 23:00 22,3 °C -4,0 °C 41 % 80 % 1029,6 hPa 0,0 l/m² 0,0 km/h (0 Bft) O-NO 0,00 h 0 W/m² -7,0 °C -4,0 °C 0,0 km/h (0 Bft)
19.03.2025 00:00 22,3 °C -4,6 °C 41 % 80 % 1029,4 hPa 0,0 l/m² 0,0 km/h (0 Bft) O-NO 0,00 h 0 W/m² -7,4 °C -4,6 °C 0,0 km/h (0 Bft)
19.03.2025 01:00 22,3 °C -5,1 °C 41 % 83 % 1029,1 hPa 0,0 l/m² 0,0 km/h (0 Bft) O-NO 0,00 h 0 W/m² -7,6 °C -5,1 °C 0,0 km/h (0 Bft)
19.03.2025 02:00 22,4 °C -5,6 °C 41 % 85 % 1028,9 hPa 0,0 l/m² 0,0 km/h (0 Bft) O-NO 0,00 h 0 W/m² -7,7 °C -5,6 °C 0,0 km/h (0 Bft)
19.03.2025 03:00 22,4 °C -6,0 °C 41 % 85 % 1029,0 hPa 0,0 l/m² 0,0 km/h (0 Bft) O-NO 0,00 h 0 W/m² -8,1 °C -6,0 °C 0,0 km/h (0 Bft)
19.03.2025 04:00 22,3 °C -6,0 °C 41 % 85 % 1028,8 hPa 0,0 l/m² 0,0 km/h (0 Bft) O-NO 0,00 h 0 W/m² -8,1 °C -6,0 °C 0,0 km/h (0 Bft)
19.03.2025 05:00 22,4 °C -6,5 °C 41 % 85 % 1028,5 hPa 0,0 l/m² 0,0 km/h (0 Bft) O-NO 0,00 h 0 W/m² -8,5 °C -6,5 °C 0,0 km/h (0 Bft)
19.03.2025 06:00 22,3 °C -6,5 °C 41 % 86 % 1029,1 hPa 0,0 l/m² 0,0 km/h (0 Bft) O-NO 0,03 h 19 W/m² -8,5 °C -6,5 °C 0,0 km/h (0 Bft)
19.03.2025 07:00 22,3 °C -4,1 °C 41 % 87 % 1029,5 hPa 0,0 l/m² 0,0 km/h (0 Bft) O-NO 1,00 h 147 W/m² -5,9 °C -4,1 °C 0,0 km/h (0 Bft)
19.03.2025 08:00 22,4 °C -0,1 °C 41 % 79 % 1029,7 hPa 0,0 l/m² 1,0 km/h (0 Bft) S 0,98 h 316 W/m² -3,3 °C -0,1 °C 2,0 km/h (1 Bft)
19.03.2025 09:00 22,6 °C 4,7 °C 42 % 63 % 1029,6 hPa 0,0 l/m² 6,3 km/h (2 Bft) S 1,00 h 473 W/m² -1,8 °C 4,2 °C 9,3 km/h (2 Bft)
19.03.2025 10:00 22,4 °C 7,9 °C 36 % 52 % 1029,4 hPa 0,0 l/m² 7,1 km/h (2 Bft) S-SW 1,02 h 591 W/m² -1,3 °C 7,2 °C 10,6 km/h (2 Bft)
19.03.2025 11:00 22,7 °C 10,1 °C 37 % 45 % 1029,0 hPa 0,0 l/m² 7,8 km/h (2 Bft) S-SO 1,00 h 663 W/m² -1,1 °C 8,9 °C 12,3 km/h (2 Bft)
19.03.2025 12:00 23,2 °C 11,9 °C 38 % 42 % 1028,2 hPa 0,0 l/m² 7,3 km/h (2 Bft) S-SO 0,98 h 680 W/m² -0,7 °C 10,8 °C 11,3 km/h (2 Bft)
19.03.2025 13:00 23,2 °C 12,9 °C 38 % 37 % 1027,4 hPa 0,0 l/m² 5,5 km/h (2 Bft) S 1,00 h 648 W/m² -1,4 °C 12,5 °C 8,9 km/h (2 Bft)
19.03.2025 14:00 23,0 °C 13,7 °C 39 % 36 % 1026,7 hPa 0,0 l/m² 8,2 km/h (2 Bft) SO 1,00 h 565 W/m² -1,2 °C 12,6 °C 12,5 km/h (2 Bft)
19.03.2025 15:00 22,8 °C 14,1 °C 39 % 35 % 1026,2 hPa 0,0 l/m² 8,0 km/h (2 Bft) S-SO 1,00 h 436 W/m² -1,2 °C 13,1 °C 11,7 km/h (2 Bft)
19.03.2025 16:00 22,8 °C 13,7 °C 39 % 35 % 1026,0 hPa 0,0 l/m² 7,3 km/h (2 Bft) S-SO 1,02 h 264 W/m² -1,4 °C 12,9 °C 10,4 km/h (2 Bft)
19.03.2025 17:00 22,6 °C 12,3 °C 38 % 40 % 1025,6 hPa 0,0 l/m² 4,5 km/h (1 Bft) SO 0,63 h 75 W/m² -1,0 °C 12,3 °C 6,2 km/h (2 Bft)
19.03.2025 18:00 22,4 °C 8,3 °C 39 % 53 % 1025,4 hPa 0,0 l/m² 0,6 km/h (0 Bft) O-SO 0,00 h 10 W/m² -0,7 °C 8,3 °C 1,0 km/h (0 Bft)
19.03.2025 19:00 22,3 °C 4,3 °C 40 % 66 % 1025,6 hPa 0,0 l/m² 0,0 km/h (0 Bft) O-SO 0,00 h 0 W/m² -1,6 °C 4,3 °C 0,0 km/h (0 Bft)
19.03.2025 20:00 22,3 °C 1,9 °C 40 % 77 % 1025,7 hPa 0,0 l/m² 0,0 km/h (0 Bft) O-SO 0,00 h 0 W/m² -1,6 °C 1,9 °C 0,0 km/h (0 Bft)
19.03.2025 21:00 22,3 °C 0,3 °C 41 % 80 % 1025,7 hPa 0,0 l/m² 0,0 km/h (0 Bft) O-SO 0,00 h 0 W/m² -2,7 °C 0,3 °C 0,0 km/h (0 Bft)
19.03.2025 22:00 22,3 °C -0,7 °C 42 % 83 % 1025,8 hPa 0,0 l/m² 0,0 km/h (0 Bft) O-SO 0,00 h 0 W/m² -3,3 °C -0,7 °C 0,0 km/h (0 Bft)
19.03.2025 23:00 22,3 °C -1,6 °C 42 % 83 % 1025,6 hPa 0,0 l/m² 0,0 km/h (0 Bft) O-SO 0,00 h 0 W/m² -4,0 °C -1,6 °C 0,0 km/h (0 Bft)
20.03.2025 00:00 22,3 °C -2,4 °C 42 % 85 % 1025,6 hPa 0,0 l/m² 0,0 km/h (0 Bft) O-SO 0,00 h 0 W/m² -4,5 °C -2,4 °C 0,0 km/h (0 Bft)
20.03.2025 01:00 22,4 °C -2,8 °C 42 % 85 % 1025,6 hPa 0,0 l/m² 0,0 km/h (0 Bft) O-SO 0,00 h 0 W/m² -5,0 °C -2,8 °C 0,0 km/h (0 Bft)
20.03.2025 02:00 22,4 °C -3,2 °C 42 % 85 % 1025,4 hPa 0,0 l/m² 0,0 km/h (0 Bft) O-SO 0,00 h 0 W/m² -5,2 °C -3,2 °C 0,0 km/h (0 Bft)
20.03.2025 03:00 22,6 °C -3,1 °C 42 % 86 % 1025,3 hPa 0,0 l/m² 0,9 km/h (0 Bft) O-NO 0,00 h 0 W/m² -5,1 °C -3,1 °C 1,8 km/h (1 Bft)
20.03.2025 04:00 22,6 °C -3,2 °C 42 % 86 % 1025,3 hPa 0,0 l/m² 2,0 km/h (1 Bft) O-NO 0,00 h 0 W/m² -5,2 °C -3,2 °C 3,9 km/h (1 Bft)
20.03.2025 05:00 22,5 °C -3,5 °C 41 % 87 % 1025,4 hPa 0,0 l/m² 1,0 km/h (0 Bft) O 0,00 h 0 W/m² -5,3 °C -3,5 °C 1,7 km/h (1 Bft)
20.03.2025 06:00 22,5 °C -3,5 °C 39 % 87 % 1025,4 hPa 0,0 l/m² 0,3 km/h (0 Bft) O-NO 0,08 h 22 W/m² -5,4 °C -3,5 °C 0,9 km/h (0 Bft)
20.03.2025 07:00 22,4 °C -1,0 °C 38 % 86 % 1025,5 hPa 0,0 l/m² 0,5 km/h (0 Bft) O-NO 1,00 h 146 W/m² -3,0 °C -1,0 °C 1,2 km/h (1 Bft)
20.03.2025 08:00 22,6 °C 4,5 °C 39 % 74 % 1025,7 hPa 0,0 l/m² 3,1 km/h (1 Bft) O-SO 1,00 h 320 W/m² 0,2 °C 4,4 °C 4,9 km/h (1 Bft)
20.03.2025 09:00 22,9 °C 8,6 °C 39 % 61 % 1025,5 hPa 0,0 l/m² 5,6 km/h (2 Bft) S-SW 1,00 h 471 W/m² 1,5 °C 7,9 °C 8,4 km/h (2 Bft)
20.03.2025 10:00 23,0 °C 12,1 °C 39 % 51 % 1025,2 hPa 0,0 l/m² 10,9 km/h (2 Bft) S-SW 1,00 h 592 W/m² 2,4 °C 9,5 °C 14,4 km/h (3 Bft)
20.03.2025 11:00 23,3 °C 14,4 °C 39 % 47 % 1024,6 hPa 0,0 l/m² 13,2 km/h (3 Bft) S-SW 1,00 h 660 W/m² 3,1 °C 11,1 °C 17,2 km/h (3 Bft)
20.03.2025 12:00 23,7 °C 15,9 °C 39 % 41 % 1024,0 hPa 0,0 l/m² 9,2 km/h (2 Bft) S-SW 0,98 h 678 W/m² 2,6 °C 14,4 °C 13,5 km/h (3 Bft)
20.03.2025 13:00 23,6 °C 16,9 °C 39 % 37 % 1023,3 hPa 0,0 l/m² 8,0 km/h (2 Bft) SW 1,00 h 639 W/m² 2,0 °C 16,0 °C 11,8 km/h (2 Bft)
20.03.2025 14:00 23,3 °C 17,3 °C 40 % 33 % 1022,6 hPa 0,0 l/m² 4,8 km/h (1 Bft) SW 1,00 h 534 W/m² 0,8 °C 17,0 °C 7,7 km/h (2 Bft)
20.03.2025 15:00 23,1 °C 17,3 °C 35 % 30 % 1022,1 hPa 0,0 l/m² 2,7 km/h (1 Bft) SW 1,02 h 374 W/m² -0,4 °C 17,3 °C 5,0 km/h (1 Bft)
20.03.2025 16:00 22,9 °C 16,3 °C 36 % 34 % 1021,8 hPa 0,0 l/m² 0,9 km/h (0 Bft) S-SO 1,00 h 127 W/m² 0,5 °C 16,3 °C 1,8 km/h (1 Bft)
20.03.2025 17:00 22,7 °C 14,4 °C 38 % 46 % 1021,7 hPa 0,0 l/m² 0,0 km/h (0 Bft) S-SO 0,05 h 31 W/m² 2,7 °C 14,4 °C 0,1 km/h (0 Bft)
20.03.2025 18:00 22,6 °C 12,1 °C 39 % 56 % 1021,6 hPa 0,0 l/m² 0,0 km/h (0 Bft) S-SO 0,00 h 12 W/m² 3,7 °C 12,1 °C 0,0 km/h (0 Bft)
20.03.2025 19:00 22,6 °C 9,3 °C 41 % 66 % 1021,9 hPa 0,0 l/m² 0,1 km/h (0 Bft) O-SO 0,00 h 0 W/m² 3,3 °C 9,3 °C 0,2 km/h (0 Bft)
20.03.2025 20:00 22,6 °C 6,4 °C 41 % 73 % 1022,0 hPa 0,0 l/m² 0,0 km/h (0 Bft) O-SO 0,00 h 0 W/m² 2,0 °C 6,4 °C 0,0 km/h (0 Bft)
20.03.2025 21:00 22,7 °C 4,1 °C 41 % 80 % 1022,0 hPa 0,0 l/m² 0,0 km/h (0 Bft) O-SO 0,00 h 0 W/m² 1,0 °C 4,1 °C 0,0 km/h (0 Bft)
20.03.2025 22:00 22,6 °C 2,4 °C 42 % 83 % 1022,1 hPa 0,0 l/m² 0,0 km/h (0 Bft) O-SO 0,00 h 0 W/m² -0,2 °C 2,4 °C 0,0 km/h (0 Bft)
20.03.2025 23:00 22,6 °C 1,6 °C 42 % 83 % 1022,2 hPa 0,0 l/m² 0,0 km/h (0 Bft) O-SO 0,00 h 0 W/m² -1,1 °C 1,6 °C 0,0 km/h (0 Bft)
21.03.2025 00:00 22,5 °C 0,9 °C 42 % 87 % 1022,0 hPa 0,0 l/m² 0,0 km/h (0 Bft) O-SO 0,00 h 0 W/m² -1,1 °C 0,9 °C 0,0 km/h (0 Bft)
21.03.2025 01:00 22,4 °C 0,1 °C 42 % 86 % 1021,9 hPa 0,0 l/m² 0,0 km/h (0 Bft) O-SO 0,00 h 0 W/m² -1,9 °C 0,1 °C 0,0 km/h (0 Bft)
21.03.2025 02:00 22,4 °C -0,3 °C 42 % 87 % 1021,5 hPa 0,0 l/m² 0,0 km/h (0 Bft) O-SO 0,00 h 0 W/m² -2,2 °C -0,3 °C 0,0 km/h (0 Bft)
21.03.2025 03:00 22,4 °C -0,9 °C 42 % 88 % 1021,1 hPa 0,0 l/m² 0,0 km/h (0 Bft) O-SO 0,00 h 0 W/m² -2,6 °C -0,9 °C 0,0 km/h (0 Bft)
21.03.2025 04:00 22,5 °C -1,3 °C 42 % 89 % 1021,0 hPa 0,0 l/m² 0,0 km/h (0 Bft) O-SO 0,00 h 0 W/m² -2,8 °C -1,3 °C 0,0 km/h (0 Bft)
21.03.2025 05:00 22,6 °C -1,5 °C 42 % 90 % 1021,1 hPa 0,0 l/m² 0,0 km/h (0 Bft) O-SO 0,00 h 0 W/m² -2,9 °C -1,5 °C 0,0 km/h (0 Bft)
21.03.2025 06:00 22,6 °C -1,6 °C 42 % 90 % 1021,3 hPa 0,0 l/m² 0,0 km/h (0 Bft) O-SO 0,00 h 22 W/m² -3,1 °C -1,6 °C 0,0 km/h (0 Bft)
21.03.2025 07:00 22,6 °C -0,1 °C 42 % 89 % 1021,4 hPa 0,0 l/m² 0,0 km/h (0 Bft) O-SO 0,98 h 127 W/m² -1,7 °C -0,1 °C 0,0 km/h (0 Bft)
21.03.2025 08:00 22,6 °C 4,5 °C 42 % 83 % 1021,3 hPa 0,0 l/m² 1,3 km/h (1 Bft) O-SO 1,00 h 301 W/m² 1,9 °C 4,5 °C 2,2 km/h (1 Bft)
21.03.2025 09:00 22,7 °C 9,4 °C 42 % 71 % 1021,2 hPa 0,0 l/m² 2,4 km/h (1 Bft) O 1,00 h 452 W/m² 4,5 °C 9,4 °C 4,1 km/h (1 Bft)
21.03.2025 10:00 22,8 °C 13,8 °C 42 % 61 % 1020,8 hPa 0,0 l/m² 6,7 km/h (2 Bft) O 1,00 h 568 W/m² 6,4 °C 13,0 °C 9,9 km/h (2 Bft)
21.03.2025 11:00 22,9 °C 16,8 °C 42 % 53 % 1020,4 hPa 0,0 l/m² 12,5 km/h (2 Bft) O 1,00 h 636 W/m² 7,1 °C 14,3 °C 16,9 km/h (3 Bft)
21.03.2025 12:00 22,9 °C 18,1 °C 42 % 48 % 1019,6 hPa 0,0 l/m² 14,6 km/h (3 Bft) O 1,00 h 655 W/m² 7,0 °C 15,1 °C 19,5 km/h (3 Bft)
21.03.2025 13:00 22,9 °C 18,7 °C 42 % 46 % 1019,0 hPa 0,0 l/m² 16,3 km/h (3 Bft) O 1,00 h 621 W/m² 6,9 °C 15,4 °C 20,6 km/h (4 Bft)
21.03.2025 14:00 22,9 °C 18,9 °C 43 % 47 % 1018,3 hPa 0,0 l/m² 16,2 km/h (3 Bft) O 1,00 h 536 W/m² 7,2 °C 15,6 °C 21,0 km/h (4 Bft)
21.03.2025 15:00 22,8 °C 18,5 °C 41 % 46 % 1017,7 hPa 0,0 l/m² 17,6 km/h (3 Bft) O 1,00 h 410 W/m² 6,6 °C 14,8 °C 22,3 km/h (4 Bft)
21.03.2025 16:00 22,8 °C 17,8 °C 41 % 46 % 1017,3 hPa 0,0 l/m² 17,4 km/h (3 Bft) O 1,00 h 252 W/m² 6,1 °C 14,0 °C 22,3 km/h (4 Bft)
21.03.2025 17:00 22,6 °C 16,7 °C 39 % 49 % 1017,0 hPa 0,0 l/m² 11,5 km/h (2 Bft) O 0,67 h 75 W/m² 5,8 °C 14,6 °C 16,1 km/h (3 Bft)
21.03.2025 18:00 22,6 °C 13,5 °C 40 % 56 % 1016,9 hPa 0,0 l/m² 5,6 km/h (2 Bft) O-NO 0,00 h 11 W/m² 4,8 °C 13,5 °C 8,8 km/h (2 Bft)
21.03.2025 19:00 22,6 °C 11,2 °C 43 % 61 % 1016,9 hPa 0,0 l/m² 5,9 km/h (2 Bft) O-NO 0,00 h 0 W/m² 3,9 °C 11,0 °C 10,1 km/h (2 Bft)
21.03.2025 20:00 22,8 °C 10,0 °C 43 % 63 % 1016,6 hPa 0,0 l/m² 7,3 km/h (2 Bft) O-NO 0,00 h 0 W/m² 3,4 °C 9,2 °C 11,8 km/h (2 Bft)
21.03.2025 21:00 22,9 °C 9,9 °C 44 % 64 % 1016,2 hPa 0,0 l/m² 10,3 km/h (2 Bft) O-NO 0,00 h 0 W/m² 3,4 °C 7,5 °C 14,6 km/h (3 Bft)
21.03.2025 22:00 22,7 °C 10,1 °C 43 % 63 % 1015,8 hPa 0,0 l/m² 13,5 km/h (3 Bft) O-NO 0,00 h 0 W/m² 3,4 °C 6,0 °C 18,8 km/h (3 Bft)
21.03.2025 23:00 22,6 °C 9,2 °C 43 % 66 % 1015,3 hPa 0,0 l/m² 11,7 km/h (2 Bft) O-NO 0,00 h 0 W/m² 3,2 °C 5,9 °C 17,1 km/h (3 Bft)
22.03.2025 00:00 22,4 °C 8,2 °C 43 % 68 % 1014,9 hPa 0,0 l/m² 10,2 km/h (2 Bft) O-NO 0,00 h 0 W/m² 2,7 °C 5,5 °C 15,2 km/h (3 Bft)
22.03.2025 01:00 22,4 °C 7,5 °C 43 % 70 % 1014,5 hPa 0,0 l/m² 10,9 km/h (2 Bft) O-NO 0,00 h 0 W/m² 2,5 °C 4,4 °C 16,1 km/h (3 Bft)
22.03.2025 02:00 22,4 °C 6,4 °C 43 % 73 % 1014,1 hPa 0,0 l/m² 7,8 km/h (2 Bft) O 0,00 h 0 W/m² 1,9 °C 5,3 °C 11,9 km/h (2 Bft)
22.03.2025 03:00 22,4 °C 5,4 °C 43 % 77 % 1013,6 hPa 0,0 l/m² 10,3 km/h (2 Bft) O 0,00 h 0 W/m² 1,8 °C 2,5 °C 14,6 km/h (3 Bft)
22.03.2025 04:00 22,3 °C 5,9 °C 43 % 76 % 1013,4 hPa 0,0 l/m² 13,3 km/h (3 Bft) O-NO 0,00 h 0 W/m² 2,0 °C 1,1 °C 18,7 km/h (3 Bft)
22.03.2025 05:00 22,3 °C 5,4 °C 43 % 77 % 1013,4 hPa 0,0 l/m² 12,0 km/h (2 Bft) O-NO 0,00 h 0 W/m² 1,6 °C 1,3 °C 17,2 km/h (3 Bft)
22.03.2025 06:00 22,3 °C 5,7 °C 43 % 74 % 1013,5 hPa 0,0 l/m² 13,2 km/h (3 Bft) O-NO 0,03 h 22 W/m² 1,4 °C 0,9 °C 17,9 km/h (3 Bft)
22.03.2025 07:00 22,3 °C 7,2 °C 43 % 68 % 1013,3 hPa 0,0 l/m² 16,7 km/h (3 Bft) O-NO 1,00 h 141 W/m² 1,7 °C 1,1 °C 23,5 km/h (4 Bft)
22.03.2025 08:00 22,3 °C 9,5 °C 45 % 62 % 1013,0 hPa 0,0 l/m² 19,1 km/h (3 Bft) O-NO 1,00 h 318 W/m² 2,5 °C 3,0 °C 26,1 km/h (4 Bft)
22.03.2025 09:00 22,6 °C 12,1 °C 43 % 55 % 1012,8 hPa 0,0 l/m² 20,1 km/h (4 Bft) O-NO 1,00 h 466 W/m² 3,4 °C 6,0 °C 27,7 km/h (5 Bft)
22.03.2025 10:00 22,6 °C 14,2 °C 40 % 50 % 1012,5 hPa 0,0 l/m² 23,4 km/h (4 Bft) O 1,00 h 580 W/m² 4,0 °C 7,9 °C 31,7 km/h (5 Bft)
22.03.2025 11:00 22,5 °C 15,6 °C 40 % 46 % 1011,9 hPa 0,0 l/m² 27,6 km/h (5 Bft) O-NO 1,00 h 649 W/m² 3,9 °C 9,0 °C 37,4 km/h (5 Bft)
22.03.2025 12:00 22,6 °C 16,3 °C 43 % 45 % 1011,2 hPa 0,0 l/m² 30,0 km/h (5 Bft) O 1,00 h 663 W/m² 4,3 °C 9,6 °C 40,1 km/h (6 Bft)
22.03.2025 13:00 22,7 °C 17,1 °C 44 % 43 % 1010,1 hPa 0,0 l/m² 28,6 km/h (5 Bft) O 1,00 h 628 W/m² 4,4 °C 10,9 °C 37,2 km/h (5 Bft)
22.03.2025 14:00 22,6 °C 17,5 °C 43 % 41 % 1009,4 hPa 0,0 l/m² 25,8 km/h (4 Bft) O 1,00 h 540 W/m² 4,2 °C 11,9 °C 34,4 km/h (5 Bft)
22.03.2025 15:00 22,6 °C 16,9 °C 44 % 41 % 1008,7 hPa 0,0 l/m² 22,8 km/h (4 Bft) O-NO 1,00 h 333 W/m² 3,5 °C 11,7 °C 30,8 km/h (5 Bft)
22.03.2025 16:00 22,7 °C 15,6 °C 44 % 41 % 1008,1 hPa 0,0 l/m² 18,7 km/h (3 Bft) O-NO 1,00 h 126 W/m² 2,4 °C 11,0 °C 26,7 km/h (4 Bft)
22.03.2025 17:00 22,4 °C 14,3 °C 44 % 44 % 1008,0 hPa 0,0 l/m² 13,4 km/h (3 Bft) O-NO 0,52 h 58 W/m² 2,3 °C 11,1 °C 20,9 km/h (4 Bft)
22.03.2025 18:00 22,3 °C 13,0 °C 44 % 49 % 1008,2 hPa 0,0 l/m² 12,6 km/h (3 Bft) O-NO 0,00 h 13 W/m² 2,5 °C 9,8 °C 19,3 km/h (3 Bft)
22.03.2025 19:00 22,3 °C 12,3 °C 44 % 52 % 1008,0 hPa 0,0 l/m² 14,1 km/h (3 Bft) O-NO 0,00 h 0 W/m² 2,8 °C 8,3 °C 21,2 km/h (4 Bft)
22.03.2025 20:00 22,2 °C 11,8 °C 44 % 54 % 1007,6 hPa 0,0 l/m² 18,1 km/h (3 Bft) O-NO 0,00 h 0 W/m² 2,9 °C 6,3 °C 25,6 km/h (4 Bft)
22.03.2025 21:00 22,3 °C 11,2 °C 45 % 56 % 1007,2 hPa 0,0 l/m² 19,2 km/h (3 Bft) O-NO 0,00 h 0 W/m² 2,9 °C 5,2 °C 26,0 km/h (4 Bft)
22.03.2025 22:00 22,3 °C 10,7 °C 45 % 58 % 1006,8 hPa 0,0 l/m² 18,2 km/h (3 Bft) O-NO 0,00 h 0 W/m² 2,8 °C 4,9 °C 24,7 km/h (4 Bft)
22.03.2025 23:00 22,2 °C 10,4 °C 45 % 59 % 1006,3 hPa 0,0 l/m² 17,3 km/h (3 Bft) O-NO 0,00 h 0 W/m² 2,7 °C 4,8 °C 24,0 km/h (4 Bft)
23.03.2025 00:00 22,2 °C 9,7 °C 45 % 61 % 1006,1 hPa 0,0 l/m² 13,7 km/h (3 Bft) O-NO 0,00 h 0 W/m² 2,5 °C 5,4 °C 19,7 km/h (3 Bft)
23.03.2025 01:00 22,1 °C 8,6 °C 45 % 64 % 1005,6 hPa 0,0 l/m² 11,7 km/h (2 Bft) O-NO 0,00 h 0 W/m² 2,2 °C 5,1 °C 17,0 km/h (3 Bft)
23.03.2025 02:00 22,1 °C 7,6 °C 45 % 67 % 1005,4 hPa 0,0 l/m² 10,1 km/h (2 Bft) O-NO 0,00 h 0 W/m² 1,9 °C 5,0 °C 14,5 km/h (3 Bft)
23.03.2025 03:00 22,0 °C 7,1 °C 45 % 69 % 1005,1 hPa 0,0 l/m² 8,9 km/h (2 Bft) O-NO 0,00 h 0 W/m² 1,7 °C 5,1 °C 14,0 km/h (3 Bft)
23.03.2025 04:00 22,0 °C 7,0 °C 45 % 69 % 1005,0 hPa 0,0 l/m² 9,1 km/h (2 Bft) O-NO 0,00 h 0 W/m² 1,7 °C 4,9 °C 14,2 km/h (3 Bft)
23.03.2025 05:00 22,1 °C 6,5 °C 44 % 70 % 1004,9 hPa 0,0 l/m² 6,0 km/h (2 Bft) O-NO 0,00 h 0 W/m² 1,5 °C 6,2 °C 9,3 km/h (2 Bft)
23.03.2025 06:00 22,1 °C 5,9 °C 44 % 72 % 1005,2 hPa 0,0 l/m² 3,4 km/h (1 Bft) O-NO 0,00 h 17 W/m² 1,2 °C 5,9 °C 6,6 km/h (2 Bft)
23.03.2025 07:00 22,0 °C 7,0 °C 44 % 69 % 1005,3 hPa 0,0 l/m² 7,7 km/h (2 Bft) O-NO 0,80 h 111 W/m² 1,7 °C 5,8 °C 13,6 km/h (3 Bft)
23.03.2025 08:00 22,0 °C 9,4 °C 46 % 65 % 1005,4 hPa 0,0 l/m² 13,8 km/h (3 Bft) O-NO 0,98 h 282 W/m² 3,2 °C 5,0 °C 19,6 km/h (3 Bft)
23.03.2025 09:00 22,2 °C 10,8 °C 45 % 66 % 1005,5 hPa 0,0 l/m² 13,5 km/h (3 Bft) O-NO 1,00 h 352 W/m² 4,6 °C 6,8 °C 18,1 km/h (3 Bft)
23.03.2025 10:00 22,2 °C 12,6 °C 44 % 65 % 1005,5 hPa 0,0 l/m² 10,9 km/h (2 Bft) O 1,00 h 527 W/m² 6,3 °C 10,1 °C 16,2 km/h (3 Bft)
23.03.2025 11:00 22,2 °C 12,6 °C 43 % 67 % 1005,5 hPa 0,0 l/m² 8,9 km/h (2 Bft) O 1,02 h 333 W/m² 6,7 °C 11,0 °C 13,2 km/h (3 Bft)
23.03.2025 12:00 22,1 °C 13,4 °C 42 % 66 % 1005,5 hPa 0,0 l/m² 6,7 km/h (2 Bft) NO 1,00 h 399 W/m² 7,2 °C 12,8 °C 10,9 km/h (2 Bft)
23.03.2025 13:00 22,1 °C 13,5 °C 42 % 68 % 1005,6 hPa 0,0 l/m² 8,8 km/h (2 Bft) O-NO 1,00 h 321 W/m² 7,7 °C 12,1 °C 12,7 km/h (3 Bft)
23.03.2025 14:00 22,1 °C 13,7 °C 43 % 70 % 1005,7 hPa 0,0 l/m² 6,8 km/h (2 Bft) O 1,00 h 309 W/m² 8,3 °C 13,0 °C 10,2 km/h (2 Bft)
23.03.2025 15:00 22,1 °C 14,0 °C 43 % 69 % 1005,7 hPa 0,0 l/m² 6,4 km/h (2 Bft) O-NO 1,00 h 214 W/m² 8,5 °C 13,5 °C 10,4 km/h (2 Bft)
23.03.2025 16:00 22,0 °C 13,5 °C 43 % 70 % 1006,0 hPa 0,0 l/m² 5,2 km/h (1 Bft) O-NO 1,00 h 104 W/m² 8,1 °C 13,3 °C 8,1 km/h (2 Bft)
23.03.2025 17:00 21,9 °C 13,0 °C 44 % 73 % 1006,3 hPa 0,0 l/m² 2,6 km/h (1 Bft) O-NO 0,60 h 58 W/m² 8,3 °C 13,0 °C 4,6 km/h (1 Bft)
23.03.2025 18:00 21,8 °C 11,2 °C 45 % 77 % 1006,6 hPa 0,0 l/m² 0,1 km/h (0 Bft) O-NO 0,00 h 12 W/m² 7,3 °C 11,2 °C 0,5 km/h (0 Bft)
23.03.2025 19:00 22,0 °C 7,1 °C 47 % 87 % 1007,1 hPa 0,0 l/m² 0,0 km/h (0 Bft) O-NO 0,00 h 0 W/m² 5,1 °C 7,1 °C 0,0 km/h (0 Bft)
23.03.2025 20:00 22,2 °C 5,9 °C 49 % 89 % 1007,7 hPa 0,0 l/m² 0,0 km/h (0 Bft) O-NO 0,00 h 0 W/m² 4,1 °C 5,9 °C 0,0 km/h (0 Bft)
23.03.2025 21:00 22,4 °C 4,5 °C 49 % 90 % 1008,0 hPa 0,0 l/m² 0,0 km/h (0 Bft) O-NO 0,00 h 0 W/m² 3,0 °C 4,5 °C 0,0 km/h (0 Bft)
23.03.2025 22:00 22,3 °C 3,8 °C 47 % 91 % 1008,4 hPa 0,0 l/m² 0,0 km/h (0 Bft) O-NO 0,00 h 0 W/m² 2,4 °C 3,8 °C 0,0 km/h (0 Bft)
23.03.2025 23:00 22,1 °C 3,5 °C 47 % 92 % 1008,7 hPa 0,0 l/m² 0,3 km/h (0 Bft) O-NO 0,00 h 0 W/m² 2,3 °C 3,5 °C 0,7 km/h (0 Bft)
Min-Datum _ 17.03.25 18.03.25 20.03.25 20.03.25 23.03.25 - 23.03.25 - - - 18.03.25 18.03.25 23.03.25
_ Min-Zeit 07:35 06:27 15:36 16:05 05:03 - 23:01 - - - 06:27 06:27 23:01
Minimum _ 21,4 °C -7,4 °C 32 % 25 % 1004,7 hPa - 0,0 km/h (0 Bft) - - - -9,3 °C -7,4 °C 0,0 km/h (0 Bft)
Max-Datum _ 20.03.25 21.03.25 23.03.25 23.03.25 18.03.25 23.03.25 22.03.25 - 23.03.25 17.03.25 23.03.25 21.03.25 22.03.25
_ Max-Zeit 13:00 14:06 21:01 23:04 09:16 23:01 12:45 - 12:53 12:23 15:19 14:49 13:24
Maximum _ 23,7 °C 19,4 °C 50 % 92 % 1033,8 hPa 0,0 l/m² 38,2 km/h
O (6 Bft)
- 0,05 h 816 W/m² 9,1 °C 18,5 °C 51,5 km/h
O (7 Bft)
Durchschnitt _ 22,4 °C 6,1 °C 42 % 65 % 1021,1 hPa #0,0 l/m² 6,5 km/h (2 Bft) O-NO #73:27 h 182 W/m² -0,7 °C 4,6 °C 9,8 km/h (2 Bft)
© 2009 Mathias Hoßbach